createdAt,value
2023-05-14T00:01:03.043Z,3.74
2023-05-14T00:06:19.774Z,3.51
2023-05-14T00:11:36.613Z,3.85
2023-05-14T00:16:52.124Z,3.77
2023-05-14T00:22:07.627Z,3.59
2023-05-14T00:27:22.502Z,3.65
2023-05-14T00:32:38.941Z,3.69
2023-05-14T00:37:55.481Z,3.63
2023-05-14T00:43:11.637Z,3.55
2023-05-14T00:48:27.150Z,3.63
2023-05-14T00:53:43.392Z,3.61
2023-05-14T01:41:10.923Z,3.8
2023-05-14T01:46:20.072Z,3.66
2023-05-14T01:51:36.010Z,3.73
2023-05-14T01:56:52.128Z,3.62
2023-05-14T02:02:08.217Z,3.7
2023-05-14T02:07:23.130Z,3.44
2023-05-14T02:12:38.666Z,3.59
2023-05-14T02:17:55.157Z,3.68
2023-05-14T02:23:10.962Z,3.63
2023-05-14T02:28:25.853Z,3.62
2023-05-14T02:33:42.614Z,3.54
2023-05-14T02:38:57.577Z,3.48
2023-05-14T02:44:12.428Z,3.67
2023-05-14T02:49:27.940Z,3.47
2023-05-14T02:54:43.543Z,3.56
2023-05-14T03:00:00.924Z,3.53
2023-05-14T03:05:13.893Z,3.61
2023-05-14T03:10:28.752Z,3.54
2023-05-14T03:15:44.928Z,3.53
2023-05-14T03:21:01.130Z,3.46
2023-05-14T03:26:15.944Z,3.64
2023-05-14T03:31:32.112Z,3.67
2023-05-14T03:36:47.662Z,3.5
2023-05-14T03:42:02.561Z,3.56
2023-05-14T03:47:18.663Z,3.62
2023-05-14T03:52:34.899Z,3.58
2023-05-14T03:57:49.685Z,3.53
2023-05-14T04:03:06.641Z,3.7
2023-05-14T04:08:22.056Z,3.5
2023-05-14T04:13:38.837Z,3.66
2023-05-14T04:18:55.286Z,3.52
2023-05-14T04:24:10.488Z,3.64
2023-05-14T04:29:26.687Z,3.48
2023-05-14T04:34:41.613Z,3.55
2023-05-14T04:39:58.304Z,3.43
2023-05-14T04:45:13.873Z,3.61
2023-05-14T04:50:29.364Z,3.58
2023-05-14T04:55:44.247Z,3.57
2023-05-14T05:01:00.811Z,3.68
2023-05-14T05:53:39.488Z,3.73
2023-05-14T05:58:54.356Z,3.66
2023-05-14T06:04:09.883Z,3.73
2023-05-14T06:09:24.714Z,3.79
2023-05-14T06:14:39.682Z,3.73
2023-05-14T06:19:55.871Z,3.84
2023-05-14T06:25:11.964Z,3.74
2023-05-14T06:30:28.192Z,3.95
2023-05-14T06:35:44.286Z,3.77
2023-05-14T06:41:01.418Z,3.9
2023-05-14T06:46:17.856Z,3.87
2023-05-14T06:51:33.408Z,3.97
2023-05-14T06:56:48.970Z,3.7
2023-05-14T07:36:45.621Z,3.96
2023-05-14T07:41:55.442Z,4.07
2023-05-14T07:47:10.637Z,4.04
2023-05-14T12:05:24.139Z,4
2023-05-14T12:10:39.584Z,4.11
2023-05-14T12:15:55.996Z,4.15
2023-05-14T12:21:12.571Z,4.04
2023-05-14T12:26:28.120Z,4
2023-05-14T12:31:43.322Z,4.03
2023-05-14T12:36:58.613Z,4.29
2023-05-14T13:29:36.594Z,3.93
2023-05-14T13:34:45.374Z,4.03
2023-05-14T13:40:02.206Z,3.83
2023-05-14T13:45:17.704Z,4.09
2023-05-14T13:50:35.106Z,3.86
2023-05-14T13:55:50.947Z,3.79
2023-05-14T14:01:05.590Z,3.94
2023-05-14T14:06:21.060Z,3.89
2023-05-14T14:11:36.579Z,3.66
2023-05-14T14:16:51.448Z,3.72
2023-05-14T14:22:06.505Z,3.73
2023-05-14T14:27:21.179Z,3.63
2023-05-14T14:32:37.591Z,3.71
2023-05-14T14:37:52.950Z,3.82
2023-05-14T14:43:08.029Z,3.91
2023-05-14T14:48:23.342Z,4.03
2023-05-14T14:53:37.532Z,3.97
2023-05-14T14:58:52.442Z,3.89
2023-05-14T15:04:07.927Z,3.9
2023-05-14T15:09:24.105Z,3.83
2023-05-14T15:14:39.007Z,3.73
2023-05-14T15:19:54.550Z,3.84
2023-05-14T15:25:09.434Z,3.81
2023-05-14T15:30:26.194Z,3.69
2023-05-14T15:35:42.338Z,3.8
2023-05-14T15:40:58.497Z,3.67
2023-05-14T15:46:14.943Z,3.75
2023-05-14T15:51:30.179Z,3.76
2023-05-14T15:56:46.315Z,3.76
2023-05-14T16:02:01.569Z,3.72
2023-05-14T16:07:16.158Z,3.75
2023-05-14T16:12:31.745Z,3.69
2023-05-14T16:17:47.379Z,3.78
2023-05-14T16:23:02.030Z,3.77
2023-05-14T16:28:17.569Z,3.88
2023-05-14T16:33:33.069Z,3.76
2023-05-14T16:39:08.866Z,3.74
2023-05-14T16:44:04.870Z,3.69
2023-05-14T16:49:20.877Z,3.78
2023-05-14T16:54:35.819Z,3.81
2023-05-14T17:16:24.533Z,3.64
2023-05-14T17:21:40.118Z,3.64
2023-05-14T17:26:55.616Z,3.57
2023-05-14T17:32:12.589Z,3.95
2023-05-14T17:37:27.906Z,3.95
2023-05-14T17:42:42.812Z,3.87
2023-05-14T17:47:59.412Z,4.02
2023-05-14T17:53:15.136Z,3.85
2023-05-14T17:58:30.675Z,4
2023-05-14T18:03:45.842Z,4.06
2023-05-14T18:09:01.701Z,3.99
2023-05-14T18:14:16.597Z,4.04
2023-05-14T18:19:32.068Z,4.1
2023-05-14T18:24:47.628Z,4.15
2023-05-14T18:30:04.468Z,4.2
2023-05-14T18:35:19.970Z,3.97
2023-05-14T18:40:35.499Z,4.02
2023-05-14T18:45:51.868Z,4.02
2023-05-14T18:51:07.158Z,3.92
2023-05-14T18:56:22.007Z,4.1
2023-05-14T19:01:37.167Z,4.2
2023-05-14T19:06:53.084Z,4.14
2023-05-14T19:12:08.623Z,4.16
2023-05-14T19:17:23.688Z,4.19
2023-05-14T19:22:39.796Z,4.14
2023-05-14T19:27:55.806Z,4.18
2023-05-14T19:33:12.320Z,4.17
2023-05-14T19:38:28.104Z,4.1
2023-05-14T19:43:44.271Z,4.23
2023-05-14T19:48:59.145Z,4.03
2023-05-14T19:54:14.014Z,3.97
2023-05-14T19:59:29.639Z,3.96
2023-05-14T20:04:45.715Z,3.99
2023-05-14T20:10:02.123Z,3.99
2023-05-14T20:15:16.849Z,3.93
2023-05-14T20:20:34.164Z,4.05
2023-05-14T20:25:47.130Z,4.04
2023-05-14T21:18:29.966Z,3.97
2023-05-14T21:23:39.791Z,3.96
2023-05-14T21:28:54.677Z,3.91
2023-05-14T21:34:10.815Z,3.95
2023-05-14T21:39:26.348Z,3.89
2023-05-14T21:44:42.551Z,3.82
2023-05-14T21:49:57.386Z,3.85
2023-05-14T21:55:12.298Z,3.85
2023-05-14T22:00:27.126Z,3.77
2023-05-14T22:05:42.026Z,3.81
2023-05-14T22:10:58.200Z,3.82
2023-05-14T22:16:14.949Z,3.93
2023-05-14T22:21:31.121Z,3.78
2023-05-14T22:26:46.687Z,3.93
2023-05-14T22:32:00.901Z,3.59
2023-05-14T22:37:15.787Z,3.68
2023-05-14T22:42:30.657Z,3.92
2023-05-14T22:47:45.856Z,3.63
2023-05-14T22:53:01.688Z,3.6
2023-05-14T22:58:17.106Z,3.69
2023-05-14T23:03:32.704Z,3.83
2023-05-14T23:08:47.622Z,3.82
2023-05-14T23:14:03.205Z,3.93
2023-05-14T23:19:37.554Z,3.81
2023-05-14T23:24:52.146Z,3.94
2023-05-14T23:30:22.975Z,3.79
2023-05-14T23:35:38.536Z,3.95
2023-05-14T23:40:54.043Z,3.89
2023-05-14T23:46:09.871Z,3.88
2023-05-14T23:51:25.718Z,3.5
2023-05-14T23:56:41.256Z,3.48
